Airfield :







YOU CAN JOIN US ON...

 
LOGIN :

Register | Disclaimer

   EN    FR    IT 

 









Legend :    VFR   Marginal VFR   IFR   Intensive IFR   Very Intensive IFR
Visi :
Ceiling :
>= 8 km
>= 3000ft
5 to 8 km
1000 to 3000 ft
1500m to 5 km
500 to 1000 ft
800 to 1500m
200 to 500 ft
< 800m
< 200 ft
Symbols :   Thunderstorms  Fog  Heavy snow  Heavy precipitations  Wind > 20 kt






- Airport Elevation : 108 ft
- IATA code : YAY


CYAY - St Anthony

CURRENT METAR :
  • 230913Z AUTO 10017G23KT 5SM -RA BR OVC006 10/09 A2971 RMK SLP063

EXPIRED METARs :
  • 230858Z AUTO 09017G22KT 9SM -RA OVC006 10/09 A2972 RMK PRESFR SLP066
  • 230827Z AUTO 09013G22KT 9SM OVC006 09/09 A2975 RMK PRESFR SLP077
  • 230817Z AUTO 10013KT 6SM -RA BR OVC006 09/09 A2977 RMK SLP084
  • 230800Z AUTO 10014KT 7SM -RA OVC006 09/08 A2978 RMK SLP087
  • 230731Z AUTO 10015G20KT 8SM -RA BKN008 BKN016 OVC031 09/08 A2980 RMK SLP094
  • 230700Z AUTO 10013G18KT 4SM -RA BR OVC006 09/08 A2983 RMK PRESFR SLP105
  • 230646Z AUTO 10015G20KT 3SM -RA BR BKN006 OVC016 09/08 A2985 RMK PRESFR SLP109
  • 230639Z AUTO 10013G18KT 3SM -RA BR BKN006 BKN010 OVC016 09/08 A2985 RMK SLP111

TAF TAF CYAY
Valid from the 23 at 08:00 until the 23 at 20:00 UTC


230747Z 2308/2320 10012G22KT 2SM SHRA BR OVC006
TEMPO 2308/2314 6SM -RA BR OVC012
PROB30 2311/2314 VRB30G40KT 1SM TSRA BR OVC004CB
FM231400 12015G25KT 3SM -DZ BR OVC008
TEMPO 2314/2316 P6SM NSW OVC015
FM231600 14012G22KT P6SM OVC025
TEMPO 2316/2320 5SM -DZ BR OVC008 RMK FCST BASED ON AUTO OBS. NXT FCST BY 231400Z
CZQX FIR / North America



MET'MAP, your aeronautical weather chart ! - Copyright ORBIFLY December 2007 - Disclaimer

ORBIFLY MET'MAP TEAM :

Programming & Development : Alexandra Zaïnal
Concept & original design : Baudouin d'Aumeries
Assistance for programming : Marc-Olivier Méhu
Technical & hardware support : Manuel Goepfert

Contact : metmap@orbifly.com




SOURCES & CREDITS :

   NOAA